createdAt,value
2022-11-04T00:00:05.333Z,13.3
2022-11-04T00:05:41.738Z,13.3
2022-11-04T00:11:16.559Z,13.4
2022-11-04T00:16:52.643Z,13.4
2022-11-04T00:22:27.601Z,13.4
2022-11-04T00:28:02.483Z,13.5
2022-11-04T00:33:37.512Z,13.5
2022-11-04T00:39:12.599Z,13.4
2022-11-04T00:44:47.407Z,13.4
2022-11-04T00:50:22.530Z,13.3
2022-11-04T00:55:57.210Z,13.2
2022-11-04T01:01:33.127Z,13.2
2022-11-04T01:07:10.397Z,13.2
2022-11-04T01:12:45.819Z,13.2
2022-11-04T01:18:26.495Z,13.1
2022-11-04T01:24:01.329Z,13.1
2022-11-04T01:29:36.102Z,13
2022-11-04T01:35:11.858Z,13
2022-11-04T01:40:46.940Z,12.9
2022-11-04T01:46:44.384Z,12.9
2022-11-04T01:52:20.590Z,12.9
2022-11-04T01:57:55.412Z,12.8
2022-11-04T02:03:30.278Z,12.8
2022-11-04T02:09:06.097Z,12.8
2022-11-04T02:14:42.428Z,12.9
2022-11-04T02:20:17.550Z,12.9
2022-11-04T02:25:52.491Z,12.9
2022-11-04T02:31:27.171Z,12.8
2022-11-04T02:37:03.100Z,12.8
2022-11-04T02:42:38.060Z,12.8
2022-11-04T02:48:34.629Z,12.9
2022-11-04T02:54:08.762Z,12.9
2022-11-04T02:59:44.398Z,12.9
2022-11-04T03:05:19.506Z,12.9
2022-11-04T03:10:54.549Z,12.9
2022-11-04T03:16:29.729Z,12.9
2022-11-04T03:22:05.449Z,12.9
2022-11-04T03:27:40.961Z,12.9
2022-11-04T03:33:16.009Z,12.9
2022-11-04T03:38:51.005Z,12.9
2022-11-04T03:44:26.299Z,12.9
2022-11-04T03:50:01.257Z,12.9
2022-11-04T03:55:36.041Z,12.8
2022-11-04T04:01:10.900Z,12.7
2022-11-04T04:06:47.477Z,12.7
2022-11-04T04:12:22.349Z,12.6
2022-11-04T04:17:57.238Z,12.6
2022-11-04T04:23:33.182Z,12.6
2022-11-04T04:29:07.916Z,12.6
2022-11-04T04:34:42.954Z,12.7
2022-11-04T04:40:23.827Z,12.7
2022-11-04T04:46:22.328Z,12.8
2022-11-04T04:51:55.134Z,12.8
2022-11-04T04:57:30.033Z,12.8
2022-11-04T05:03:04.989Z,12.9
2022-11-04T05:08:42.258Z,12.9
2022-11-04T05:14:17.135Z,12.9
2022-11-04T05:19:52.323Z,12.9
2022-11-04T05:25:28.164Z,12.9
2022-11-04T05:31:03.463Z,12.9
2022-11-04T05:36:39.466Z,12.9
2022-11-04T05:42:14.509Z,12.9
2022-11-04T05:48:11.409Z,13
2022-11-04T05:53:44.105Z,12.9
2022-11-04T05:59:19.249Z,13
2022-11-04T06:04:54.146Z,13
2022-11-04T06:10:30.213Z,13
2022-11-04T06:16:11.773Z,13
2022-11-04T06:21:46.643Z,12.9
2022-11-04T06:27:21.524Z,12.9
2022-11-04T06:32:57.563Z,12.9
2022-11-04T06:38:33.683Z,12.9
2022-11-04T06:44:09.601Z,12.9
2022-11-04T06:49:44.656Z,12.9
2022-11-04T06:55:20.685Z,12.9
2022-11-04T07:00:55.972Z,12.9
2022-11-04T07:06:33.147Z,12.9
2022-11-04T07:12:12.698Z,12.9
2022-11-04T07:18:08.675Z,12.9
2022-11-04T07:23:48.134Z,12.9
2022-11-04T07:29:22.982Z,12.9
2022-11-04T07:34:57.933Z,12.9
2022-11-04T07:40:32.775Z,12.9
2022-11-04T07:46:29.204Z,12.9
2022-11-04T07:52:02.935Z,12.8
2022-11-04T07:57:38.104Z,12.8
2022-11-04T08:03:17.485Z,11.5
2022-11-04T08:09:08.493Z,11.4
2022-11-04T08:16:16.061Z,12
2022-11-04T08:21:50.782Z,12.5
2022-11-04T08:27:27.639Z,12
2022-11-04T08:33:02.756Z,11.6
2022-11-04T08:38:37.775Z,11.7
2022-11-04T08:44:13.098Z,12.1
2022-11-04T08:49:49.784Z,12.2
2022-11-04T08:55:25.819Z,12.5
2022-11-04T09:01:00.874Z,12
2022-11-04T09:06:37.907Z,11.6
2022-11-04T09:12:17.378Z,11.3
2022-11-04T09:17:53.989Z,11.5
2022-11-04T09:23:29.648Z,11.4
2022-11-04T09:29:04.516Z,12
2022-11-04T09:34:40.183Z,12.3
2022-11-04T09:40:17.372Z,12.2
2022-11-04T09:46:14.385Z,12.3
2022-11-04T09:51:54.108Z,12.3
2022-11-04T09:57:32.338Z,13.2
2022-11-04T10:03:08.884Z,13.8
2022-11-04T10:08:47.426Z,13.2
2022-11-04T10:14:23.629Z,13.5
2022-11-04T10:19:58.968Z,13.8
2022-11-04T10:25:34.442Z,14
2022-11-04T10:31:11.199Z,14.3
2022-11-04T10:36:46.058Z,14.5
2022-11-04T10:42:21.546Z,15.7
2022-11-04T10:48:20.311Z,15.8
2022-11-04T10:53:53.973Z,16.4
2022-11-04T10:59:29.114Z,17.1
2022-11-04T11:05:05.270Z,16.3
2022-11-04T11:10:41.912Z,16.3
2022-11-04T11:16:16.783Z,15.9
2022-11-04T11:21:51.948Z,16
2022-11-04T11:27:27.102Z,16.3
2022-11-04T11:33:02.588Z,16.9
2022-11-04T11:38:38.286Z,15.9
2022-11-04T11:44:13.186Z,16.6
2022-11-04T11:49:47.965Z,16.3
2022-11-04T11:55:23.157Z,17.8
2022-11-04T12:01:03.386Z,16.9
2022-11-04T12:14:57.961Z,14.4
2022-11-04T12:20:32.366Z,13.4
2022-11-04T12:26:07.479Z,13.5
2022-11-04T12:31:42.463Z,13.8
2022-11-04T12:37:17.479Z,15.6
2022-11-04T12:42:52.736Z,16.4
2022-11-04T12:48:54.435Z,17
2022-11-04T12:54:40.022Z,18.6
2022-11-04T13:00:15.159Z,18.5
2022-11-04T13:05:50.571Z,17.2
2022-11-04T13:11:26.219Z,16.5
2022-11-04T13:17:02.461Z,16.3
2022-11-04T13:22:44.171Z,17.6
2022-11-04T13:28:37.463Z,19.9
2022-11-04T13:34:23.403Z,19.3
2022-11-04T13:40:02.048Z,17.1
2022-11-04T13:45:39.676Z,16.5
2022-11-04T13:51:15.788Z,15.5
2022-11-04T13:56:50.713Z,14.7
2022-11-04T14:02:28.404Z,23.3
2022-11-04T14:08:04.083Z,19.1
2022-11-04T14:13:47.723Z,20.6
2022-11-04T14:19:26.923Z,22.2
2022-11-04T14:25:04.734Z,18
2022-11-04T14:30:44.981Z,16.9
2022-11-04T14:36:20.400Z,15.6
2022-11-04T14:41:55.257Z,15
2022-11-04T14:47:52.826Z,14.9
2022-11-04T14:53:25.386Z,15.2
2022-11-04T14:59:00.401Z,17.2
2022-11-04T15:04:35.790Z,17.3
2022-11-04T15:10:11.850Z,17
2022-11-04T15:15:46.684Z,16.2
2022-11-04T15:21:22.773Z,16.4
2022-11-04T15:26:57.635Z,16.3
2022-11-04T15:32:32.723Z,15.6
2022-11-04T15:38:07.566Z,15.1
2022-11-04T15:43:42.702Z,15.2
2022-11-04T15:49:17.986Z,15
2022-11-04T15:54:53.117Z,14.9
2022-11-04T16:00:28.333Z,14.3
2022-11-04T16:06:03.524Z,13.8
2022-11-04T16:11:38.711Z,13.9
2022-11-04T16:17:22.624Z,14.3
2022-11-04T16:22:57.563Z,14.2
2022-11-04T16:28:32.430Z,13.9
2022-11-04T16:34:26.057Z,13.5
2022-11-04T16:40:00.770Z,13.5
2022-11-04T16:46:04.486Z,13.2
2022-11-04T16:51:40.383Z,13
2022-11-04T16:57:15.836Z,12.8
2022-11-04T17:02:53.542Z,12.9
2022-11-04T17:08:28.662Z,12.9
2022-11-04T17:14:03.976Z,12.8
2022-11-04T17:19:39.516Z,12.7
2022-11-04T17:25:15.923Z,12.6
2022-11-04T17:30:56.616Z,12.6
2022-11-04T17:36:31.442Z,12.3
2022-11-04T17:42:06.617Z,11.9
2022-11-04T17:48:03.095Z,11.7
2022-11-04T17:53:36.609Z,11.6
2022-11-04T17:59:12.220Z,11.5
2022-11-04T18:04:57.095Z,11.2
2022-11-04T18:10:33.166Z,11.2
2022-11-04T18:16:08.461Z,11.4
2022-11-04T18:21:43.335Z,11.6
2022-11-04T18:27:34.655Z,11.8
2022-11-04T18:33:13.854Z,11.8
2022-11-04T18:39:00.552Z,11.9
2022-11-04T18:44:48.620Z,12
2022-11-04T18:50:24.877Z,12.1
2022-11-04T18:56:02.630Z,12.1
2022-11-04T19:01:52.653Z,12.1
2022-11-04T19:07:29.714Z,12.2
2022-11-04T19:13:27.271Z,12.2
2022-11-04T19:19:05.150Z,12.1
2022-11-04T19:24:58.147Z,12.1
2022-11-04T19:31:06.873Z,12.1
2022-11-04T19:36:41.500Z,12.1
2022-11-04T19:42:16.811Z,12.1
2022-11-04T19:47:51.570Z,12.1
2022-11-04T19:53:33.890Z,12.1
2022-11-04T19:59:09.308Z,12.1
2022-11-04T20:04:44.311Z,12.4
2022-11-04T20:10:19.695Z,12.3
2022-11-04T20:15:54.832Z,12.4
2022-11-04T20:21:30.082Z,12.4
2022-11-04T20:27:05.149Z,12.8
2022-11-04T20:32:40.089Z,12.7
2022-11-04T20:38:18.364Z,12.3
2022-11-04T20:43:56.642Z,12.4
2022-11-04T20:49:35.466Z,12.3
2022-11-04T20:55:11.078Z,12.3
2022-11-04T21:01:11.974Z,12.4
2022-11-04T21:06:48.293Z,12.4
2022-11-04T21:12:23.085Z,12.3
2022-11-04T21:18:02.465Z,12.3
2022-11-04T21:23:39.081Z,12.3
2022-11-04T21:29:16.392Z,12.3
2022-11-04T21:34:59.003Z,12.2
2022-11-04T21:40:34.871Z,12.2
2022-11-04T21:46:31.660Z,12.2
2022-11-04T21:52:05.638Z,12.2
2022-11-04T21:57:44.840Z,12.2
2022-11-04T22:03:20.439Z,12.3
2022-11-04T22:08:55.351Z,12.7
2022-11-04T22:14:33.081Z,12.9
2022-11-04T22:20:08.892Z,12.9
2022-11-04T22:25:48.968Z,13
2022-11-04T22:31:25.397Z,13
2022-11-04T22:37:00.516Z,13
2022-11-04T22:42:36.790Z,13
2022-11-04T22:48:33.628Z,13.1
2022-11-04T22:54:08.400Z,13.1
2022-11-04T22:59:44.670Z,13.1
2022-11-04T23:05:19.437Z,13.1
2022-11-04T23:10:54.624Z,13.1
2022-11-04T23:16:29.281Z,13.1
2022-11-04T23:22:04.520Z,13.1
2022-11-04T23:27:39.900Z,13.1
2022-11-04T23:33:15.059Z,13.1
2022-11-04T23:38:51.060Z,13.1
2022-11-04T23:44:29.106Z,13.1
2022-11-04T23:50:03.980Z,13.2
2022-11-04T23:55:39.331Z,13.1
